Time;durP1;ratioP1;P1;durP2;ratioP2;P2;SDS_P1;SDS_P2;PMS_P1;PMS_P2;Temp;Humidity;BMP_temperature;BMP_pressure;BME280_temperature;BME280_humidity;BME280_pressure;Samples;Min_cycle;Max_cycle;Signal;HPM_P1;HPM_P2
2021/08/15 00:02:20;;;;;;;0.00;0.00;;;;;;;;;;5061739;28;20231;-72
2021/08/15 00:04:47;;;;;;;0.00;0.00;;;;;;;;;;5054643;28;20549;-71
2021/08/15 00:07:17;;;;;;;0.00;0.00;;;;;;;;;;5057573;28;20222;-72
2021/08/15 00:09:45;;;;;;;0.00;0.00;;;;;;;;;;5066050;28;20261;-71
2021/08/15 00:12:12;;;;;;;0.00;0.00;;;;;;;;;;5056028;28;20211;-71
2021/08/15 00:14:40;;;;;;;0.00;0.00;;;;;;;;;;5065281;28;20207;-70
2021/08/15 00:17:07;;;;;;;0.00;0.00;;;;;;;;;;5062111;28;20191;-71
2021/08/15 00:19:34;;;;;;;0.00;0.00;;;;;;;;;;5061329;28;20298;-71
2021/08/15 00:22:02;;;;;;;0.00;0.00;;;;;;;;;;5061456;28;20227;-71
2021/08/15 00:24:32;;;;;;;0.00;0.00;;;;;;;;;;5061247;28;20245;-71
2021/08/15 00:26:59;;;;;;;0.00;0.00;;;;;;;;;;5064479;28;20286;-70
2021/08/15 00:29:27;;;;;;;0.00;0.00;;;;;;;;;;5060105;28;20206;-70
2021/08/15 00:31:54;;;;;;;0.00;0.00;;;;;;;;;;5057026;28;20295;-70
2021/08/15 00:34:22;;;;;;;0.00;0.00;;;;;;;;;;5057760;28;20209;-71
2021/08/15 00:36:49;;;;;;;0.00;0.00;;;;;;;;;;5061580;28;20207;-71
2021/08/15 00:39:16;;;;;;;0.00;0.00;;;;;;;;;;5053367;28;20664;-73
2021/08/15 00:41:45;;;;;;;0.00;0.00;;;;;;;;;;5058530;28;20227;-70
2021/08/15 00:44:13;;;;;;;0.00;0.00;;;;;;;;;;5064755;28;20204;-72
2021/08/15 00:46:40;;;;;;;0.00;0.00;;;;;;;;;;5064443;28;20218;-73
2021/08/15 00:49:07;;;;;;;0.00;0.00;;;;;;;;;;5058547;28;20191;-72
2021/08/15 00:51:35;;;;;;;0.00;0.00;;;;;;;;;;5056684;28;20574;-71
2021/08/15 00:54:02;;;;;;;0.00;0.00;;;;;;;;;;5056564;28;20218;-72
2021/08/15 00:56:29;;;;;;;0.00;0.00;;;;;;;;;;5062800;28;20196;-71
2021/08/15 00:58:58;;;;;;;0.00;0.00;;;;;;;;;;5064084;28;20199;-71
2021/08/15 01:01:26;;;;;;;0.00;0.00;;;;;;;;;;5064203;28;20525;-71
2021/08/15 01:03:53;;;;;;;0.00;0.00;;;;;;;;;;5062472;28;20229;-71
2021/08/15 01:06:20;;;;;;;0.00;0.00;;;;;;;;;;5065848;28;20206;-72
2021/08/15 01:08:48;;;;;;;0.00;0.00;;;;;;;;;;5060788;28;20652;-71
2021/08/15 01:11:15;;;;;;;0.00;0.00;;;;;;;;;;5064330;28;20580;-71
2021/08/15 01:13:42;;;;;;;0.00;0.00;;;;;;;;;;5064159;28;20195;-71
2021/08/15 01:16:11;;;;;;;0.00;0.00;;;;;;;;;;5057501;28;20208;-73
2021/08/15 01:18:39;;;;;;;0.00;0.00;;;;;;;;;;5057485;28;20227;-71
2021/08/15 01:21:08;;;;;;;0.00;0.00;;;;;;;;;;5058759;28;20570;-71
2021/08/15 01:23:37;;;;;;;0.00;0.00;;;;;;;;;;5055717;28;20219;-70
2021/08/15 01:26:05;;;;;;;0.00;0.00;;;;;;;;;;5061373;28;20203;-70
2021/08/15 01:28:34;;;;;;;0.00;0.00;;;;;;;;;;5066923;28;20571;-71
2021/08/15 01:31:02;;;;;;;0.00;0.00;;;;;;;;;;5054092;28;20207;-71
2021/08/15 01:33:30;;;;;;;0.00;0.00;;;;;;;;;;5057208;28;20208;-71
2021/08/15 01:35:58;;;;;;;0.00;0.00;;;;;;;;;;5051489;28;20203;-70
2021/08/15 01:38:27;;;;;;;0.00;0.00;;;;;;;;;;5064261;28;20207;-71
2021/08/15 01:40:55;;;;;;;0.00;0.00;;;;;;;;;;5054998;28;20214;-70
2021/08/15 01:43:23;;;;;;;0.00;0.00;;;;;;;;;;5064506;28;20237;-69
2021/08/15 01:45:52;;;;;;;0.00;0.00;;;;;;;;;;5062724;28;20560;-70
2021/08/15 01:48:19;;;;;;;0.00;0.00;;;;;;;;;;5065250;28;20215;-70
2021/08/15 01:50:47;;;;;;;0.00;0.00;;;;;;;;;;5063859;28;20664;-70
2021/08/15 01:53:15;;;;;;;0.00;0.00;;;;;;;;;;5062101;28;20213;-71
2021/08/15 01:55:43;;;;;;;0.00;0.00;;;;;;;;;;5056200;28;20207;-70
2021/08/15 01:58:11;;;;;;;0.00;0.00;;;;;;;;;;5057523;28;20206;-71
2021/08/15 02:00:39;;;;;;;0.00;0.00;;;;;;;;;;5056504;28;20230;-71
2021/08/15 02:03:08;;;;;;;0.00;0.00;;;;;;;;;;5055611;28;20239;-69
2021/08/15 02:05:35;;;;;;;0.00;0.00;;;;;;;;;;5054185;28;20201;-70
2021/08/15 02:08:03;;;;;;;0.00;0.00;;;;;;;;;;5056285;28;20208;-70
2021/08/15 02:10:32;;;;;;;0.00;0.00;;;;;;;;;;5057280;28;20922;-70
2021/08/15 02:13:00;;;;;;;0.00;0.00;;;;;;;;;;5059292;28;20216;-70
2021/08/15 02:15:27;;;;;;;0.00;0.00;;;;;;;;;;5062833;28;20219;-72
2021/08/15 02:17:54;;;;;;;0.00;0.00;;;;;;;;;;5058278;28;20210;-71
2021/08/15 02:20:24;;;;;;;0.00;0.00;;;;;;;;;;5056696;28;20676;-71
2021/08/15 02:22:52;;;;;;;0.00;0.00;;;;;;;;;;5058022;28;20234;-72
2021/08/15 02:25:20;;;;;;;0.00;0.00;;;;;;;;;;5060718;28;20230;-71
2021/08/15 02:27:47;;;;;;;0.00;0.00;;;;;;;;;;5057149;28;20199;-71
2021/08/15 02:30:16;;;;;;;0.00;0.00;;;;;;;;;;5060062;28;20199;-71
2021/08/15 02:32:44;;;;;;;0.00;0.00;;;;;;;;;;5059952;28;20574;-70
2021/08/15 02:35:12;;;;;;;0.00;0.00;;;;;;;;;;5059301;28;20687;-70
2021/08/15 02:37:41;;;;;;;0.00;0.00;;;;;;;;;;5060560;28;20212;-70
2021/08/15 02:40:10;;;;;;;0.00;0.00;;;;;;;;;;5059159;28;20765;-71
2021/08/15 02:42:40;;;;;;;0.00;0.00;;;;;;;;;;5060159;28;20223;-70
2021/08/15 02:45:09;;;;;;;0.00;0.00;;;;;;;;;;5056848;28;20206;-70
2021/08/15 02:47:36;;;;;;;0.00;0.00;;;;;;;;;;5058277;28;20204;-70
2021/08/15 02:50:04;;;;;;;0.00;0.00;;;;;;;;;;5058534;28;20203;-71
2021/08/15 02:52:32;;;;;;;0.00;0.00;;;;;;;;;;5064788;28;20206;-70
2021/08/15 02:55:01;;;;;;;0.00;0.00;;;;;;;;;;5055634;28;20223;-71
2021/08/15 02:57:29;;;;;;;0.87;0.87;;;;;;;;;;5055869;28;20219;-71
2021/08/15 02:59:56;;;;;;;0.00;0.00;;;;;;;;;;5056663;28;20225;-71
2021/08/15 03:02:23;;;;;;;0.00;0.00;;;;;;;;;;5057310;28;20229;-70
2021/08/15 03:04:51;;;;;;;0.00;0.00;;;;;;;;;;5060282;28;20640;-72
2021/08/15 03:07:19;;;;;;;0.00;0.00;;;;;;;;;;5055512;28;20212;-72
2021/08/15 03:09:47;;;;;;;0.00;0.00;;;;;;;;;;5062461;28;20218;-72
2021/08/15 03:12:16;;;;;;;0.00;0.00;;;;;;;;;;5072071;28;20199;-71
2021/08/15 03:14:43;;;;;;;0.00;0.00;;;;;;;;;;5063977;28;20213;-71
2021/08/15 03:17:11;;;;;;;0.00;0.00;;;;;;;;;;5059633;28;20211;-72
2021/08/15 03:19:38;;;;;;;0.00;0.00;;;;;;;;;;5059903;28;20576;-71
2021/08/15 03:22:07;;;;;;;0.00;0.00;;;;;;;;;;5059952;28;20511;-73
2021/08/15 03:24:34;;;;;;;0.00;0.00;;;;;;;;;;5058395;28;20305;-72
2021/08/15 03:27:02;;;;;;;0.00;0.00;;;;;;;;;;5056771;28;20203;-71
2021/08/15 03:29:31;;;;;;;0.00;0.00;;;;;;;;;;5058616;28;20199;-71
2021/08/15 03:31:58;;;;;;;0.00;0.00;;;;;;;;;;5057075;28;20579;-71
2021/08/15 03:34:25;;;;;;;0.00;0.00;;;;;;;;;;5056637;28;20677;-70
2021/08/15 03:36:53;;;;;;;0.00;0.00;;;;;;;;;;5059071;28;20222;-70
2021/08/15 03:39:21;;;;;;;0.00;0.00;;;;;;;;;;5058143;28;20208;-72
2021/08/15 03:41:49;;;;;;;0.00;0.00;;;;;;;;;;5056657;28;20264;-71
2021/08/15 03:44:16;;;;;;;0.00;0.00;;;;;;;;;;5056985;28;20226;-70
2021/08/15 03:46:45;;;;;;;0.00;0.00;;;;;;;;;;5057980;28;20199;-71
2021/08/15 03:49:13;;;;;;;0.00;0.00;;;;;;;;;;5056790;28;20724;-71
2021/08/15 03:51:40;;;;;;;0.00;0.00;;;;;;;;;;5063675;28;20206;-70
2021/08/15 03:54:08;;;;;;;0.00;0.00;;;;;;;;;;5058289;28;20206;-72
2021/08/15 03:56:35;;;;;;;0.00;0.00;;;;;;;;;;5056975;28;20211;-71
2021/08/15 03:59:03;;;;;;;0.00;0.00;;;;;;;;;;5057457;28;20203;-71
2021/08/15 04:01:30;;;;;;;0.00;0.00;;;;;;;;;;5057213;28;20216;-71
2021/08/15 04:03:59;;;;;;;0.00;0.00;;;;;;;;;;5056730;28;20600;-72
2021/08/15 04:06:27;;;;;;;0.00;0.00;;;;;;;;;;5059746;28;20686;-71
2021/08/15 04:08:56;;;;;;;0.00;0.00;;;;;;;;;;5053750;28;20234;-72
2021/08/15 04:11:23;;;;;;;0.00;0.00;;;;;;;;;;5054767;28;20286;-71
2021/08/15 04:13:51;;;;;;;0.00;0.00;;;;;;;;;;5056961;28;20202;-71
2021/08/15 04:16:18;;;;;;;0.00;0.00;;;;;;;;;;5056620;28;20215;-71
2021/08/15 04:18:45;;;;;;;0.00;0.00;;;;;;;;;;5056910;28;20211;-70
2021/08/15 04:21:14;;;;;;;0.00;0.00;;;;;;;;;;5058459;28;20214;-73
2021/08/15 04:23:41;;;;;;;0.00;0.00;;;;;;;;;;5057593;28;20699;-70
2021/08/15 04:26:09;;;;;;;4.23;3.93;;;;;;;;;;5058096;28;20211;-70
2021/08/15 04:28:36;;;;;;;0.00;0.00;;;;;;;;;;5053620;28;20642;-70
2021/08/15 04:31:03;;;;;;;0.00;0.00;;;;;;;;;;5060008;28;20207;-69
2021/08/15 04:33:31;;;;;;;0.00;0.00;;;;;;;;;;5058153;28;20256;-70
2021/08/15 04:35:58;;;;;;;0.00;0.00;;;;;;;;;;5056314;28;20215;-72
2021/08/15 04:38:27;;;;;;;0.00;0.00;;;;;;;;;;5054777;28;20199;-72
2021/08/15 04:40:54;;;;;;;0.00;0.00;;;;;;;;;;5057627;28;20620;-71
2021/08/15 04:43:22;;;;;;;0.00;0.00;;;;;;;;;;5057631;28;20219;-72
2021/08/15 04:45:49;;;;;;;0.00;0.00;;;;;;;;;;5057890;28;20200;-71
2021/08/15 04:48:17;;;;;;;0.00;0.00;;;;;;;;;;5055352;28;20199;-72
2021/08/15 04:50:45;;;;;;;0.00;0.00;;;;;;;;;;5058643;28;20207;-72
2021/08/15 04:53:13;;;;;;;0.00;0.00;;;;;;;;;;5058078;28;20199;-72
2021/08/15 04:55:42;;;;;;;0.00;0.00;;;;;;;;;;5055367;28;20203;-71
2021/08/15 04:58:09;;;;;;;0.00;0.00;;;;;;;;;;5055969;28;20222;-72
2021/08/15 05:00:36;;;;;;;0.00;0.00;;;;;;;;;;5059522;28;20657;-71
2021/08/15 05:03:06;;;;;;;0.00;0.00;;;;;;;;;;5057307;28;20665;-71
2021/08/15 05:05:34;;;;;;;0.00;0.00;;;;;;;;;;5057927;28;20207;-71
2021/08/15 05:08:01;;;;;;;0.00;0.00;;;;;;;;;;5056843;28;20288;-70
2021/08/15 05:10:29;;;;;;;0.00;0.00;;;;;;;;;;5056743;28;20235;-73
2021/08/15 05:12:57;;;;;;;0.00;0.00;;;;;;;;;;5053818;28;20584;-72
2021/08/15 05:15:25;;;;;;;0.00;0.00;;;;;;;;;;5056911;28;20202;-73
2021/08/15 05:17:52;;;;;;;0.00;0.00;;;;;;;;;;5055780;28;20275;-71
2021/08/15 05:20:19;;;;;;;0.00;0.00;;;;;;;;;;5055553;28;20199;-72
2021/08/15 05:22:47;;;;;;;0.00;0.00;;;;;;;;;;5056326;28;20207;-71
2021/08/15 05:25:14;;;;;;;0.00;0.00;;;;;;;;;;5053160;28;20219;-72
2021/08/15 05:27:41;;;;;;;0.00;0.00;;;;;;;;;;5056992;28;20191;-71
2021/08/15 05:30:11;;;;;;;0.00;0.00;;;;;;;;;;5053929;28;20699;-71
2021/08/15 05:32:38;;;;;;;0.00;0.00;;;;;;;;;;5054313;28;20209;-71
2021/08/15 05:35:06;;;;;;;0.00;0.00;;;;;;;;;;5054474;28;20208;-73
2021/08/15 05:37:33;;;;;;;0.00;0.00;;;;;;;;;;5054740;28;20673;-72
2021/08/15 05:40:00;;;;;;;0.00;0.00;;;;;;;;;;5058255;28;20214;-71
2021/08/15 05:42:28;;;;;;;0.00;0.00;;;;;;;;;;5054200;28;20203;-71
2021/08/15 05:44:55;;;;;;;0.00;0.00;;;;;;;;;;5052562;28;20234;-71
2021/08/15 05:47:24;;;;;;;0.00;0.00;;;;;;;;;;5059029;28;20207;-70
2021/08/15 05:49:51;;;;;;;0.00;0.00;;;;;;;;;;5054799;28;20199;-72
2021/08/15 05:52:18;;;;;;;0.00;0.00;;;;;;;;;;5055607;28;20203;-72
2021/08/15 05:54:46;;;;;;;0.00;0.00;;;;;;;;;;5053862;28;20199;-72
2021/08/15 05:57:13;;;;;;;0.00;0.00;;;;;;;;;;5054496;28;20221;-72
2021/08/15 05:59:40;;;;;;;0.00;0.00;;;;;;;;;;5055688;28;20210;-72
2021/08/15 06:02:08;;;;;;;0.00;0.00;;;;;;;;;;5055937;28;20202;-72
2021/08/15 06:04:36;;;;;;;0.00;0.00;;;;;;;;;;5055346;28;20222;-71
2021/08/15 06:07:04;;;;;;;0.00;0.00;;;;;;;;;;5053360;28;20223;-72
2021/08/15 06:09:31;;;;;;;0.00;0.00;;;;;;;;;;5058440;28;20242;-71
2021/08/15 06:12:04;;;;;;;0.00;0.00;;;;;;;;;;5056827;28;20260;-71
2021/08/15 06:14:32;;;;;;;0.00;0.00;;;;;;;;;;5058728;28;20660;-71
2021/08/15 06:16:59;;;;;;;0.00;0.00;;;;;;;;;;5051852;28;20195;-71
2021/08/15 06:19:26;;;;;;;0.00;0.00;;;;;;;;;;5054196;28;21228;-70
2021/08/15 06:21:55;;;;;;;0.00;0.00;;;;;;;;;;5056724;28;20881;-72
2021/08/15 06:24:23;;;;;;;0.00;0.00;;;;;;;;;;5054400;28;20614;-73
2021/08/15 06:26:50;;;;;;;0.00;0.00;;;;;;;;;;5053839;28;20736;-71
2021/08/15 06:29:17;;;;;;;0.00;0.00;;;;;;;;;;5054364;28;20202;-71
2021/08/15 06:31:45;;;;;;;0.00;0.00;;;;;;;;;;5056027;28;20195;-71
2021/08/15 06:34:12;;;;;;;0.00;0.00;;;;;;;;;;5058584;28;20214;-73
2021/08/15 06:36:40;;;;;;;0.00;0.00;;;;;;;;;;5056328;28;20214;-71
2021/08/15 06:39:08;;;;;;;0.00;0.00;;;;;;;;;;5054092;28;20567;-71
2021/08/15 06:41:36;;;;;;;0.00;0.00;;;;;;;;;;5059553;28;20683;-71
2021/08/15 06:44:03;;;;;;;0.00;0.00;;;;;;;;;;5051717;28;20242;-71
2021/08/15 06:46:30;;;;;;;0.00;0.00;;;;;;;;;;5057314;28;20207;-72
2021/08/15 06:48:58;;;;;;;0.00;0.00;;;;;;;;;;5051442;28;20210;-73
2021/08/15 06:51:25;;;;;;;0.00;0.00;;;;;;;;;;5055074;28;20192;-74
2021/08/15 06:53:52;;;;;;;0.00;0.00;;;;;;;;;;5053076;28;20203;-72
2021/08/15 06:56:21;;;;;;;0.00;0.00;;;;;;;;;;5060222;28;20545;-72
2021/08/15 06:58:50;;;;;;;0.00;0.00;;;;;;;;;;5060768;28;20612;-72
2021/08/15 07:01:17;;;;;;;0.00;0.00;;;;;;;;;;5058289;28;20206;-71
2021/08/15 07:03:44;;;;;;;0.00;0.00;;;;;;;;;;5055319;28;20487;-72
2021/08/15 07:06:12;;;;;;;0.00;0.00;;;;;;;;;;5056857;28;20195;-75
2021/08/15 07:08:39;;;;;;;0.00;0.00;;;;;;;;;;5056327;28;20206;-72
2021/08/15 07:11:07;;;;;;;0.00;0.00;;;;;;;;;;5059938;28;20207;-75
2021/08/15 07:13:35;;;;;;;0.00;0.00;;;;;;;;;;5061064;28;20206;-72
2021/08/15 07:16:04;;;;;;;0.00;0.00;;;;;;;;;;5069274;28;20245;-73
2021/08/15 07:18:31;;;;;;;0.00;0.00;;;;;;;;;;5062843;28;20866;-71
2021/08/15 07:21:00;;;;;;;0.00;0.00;;;;;;;;;;5064648;28;20199;-71
2021/08/15 07:23:27;;;;;;;0.00;0.00;;;;;;;;;;5063203;28;20203;-71
2021/08/15 07:25:55;;;;;;;0.00;0.00;;;;;;;;;;5063192;28;20226;-72
2021/08/15 07:28:22;;;;;;;0.00;0.00;;;;;;;;;;5057414;28;20217;-71
2021/08/15 07:30:51;;;;;;;0.00;0.00;;;;;;;;;;5058953;28;20215;-71
2021/08/15 07:33:18;;;;;;;0.00;0.00;;;;;;;;;;5057399;28;20199;-72
2021/08/15 07:35:46;;;;;;;0.00;0.00;;;;;;;;;;5057241;28;20226;-72
2021/08/15 07:38:13;;;;;;;0.00;0.00;;;;;;;;;;5057614;28;20206;-72
2021/08/15 07:40:41;;;;;;;0.00;0.00;;;;;;;;;;5056699;28;20213;-72
2021/08/15 07:43:08;;;;;;;0.00;0.00;;;;;;;;;;5056051;28;20679;-72
2021/08/15 07:45:35;;;;;;;0.00;0.00;;;;;;;;;;5059219;28;21718;-72
2021/08/15 07:48:05;;;;;;;0.00;0.00;;;;;;;;;;5057961;28;20241;-73
2021/08/15 07:50:36;;;;;;;0.00;0.00;;;;;;;;;;5057347;28;20656;-71
2021/08/15 07:53:15;;;;;;;0.00;0.00;;;;;;;;;;5058786;28;20218;-72
2021/08/15 07:55:43;;;;;;;0.40;0.40;;;;;;;;;;5060052;28;20202;-72
2021/08/15 07:58:10;;;;;;;0.00;0.00;;;;;;;;;;5061242;28;20207;-71
2021/08/15 08:00:38;;;;;;;0.00;0.00;;;;;;;;;;5060004;28;20199;-71
2021/08/15 08:03:07;;;;;;;0.00;0.00;;;;;;;;;;5059309;28;20687;-72
2021/08/15 08:05:34;;;;;;;0.00;0.00;;;;;;;;;;5060703;28;20231;-71
2021/08/15 08:08:01;;;;;;;0.00;0.00;;;;;;;;;;5061645;28;20210;-71
2021/08/15 08:10:29;;;;;;;0.00;0.00;;;;;;;;;;5059295;28;20277;-71
2021/08/15 08:12:56;;;;;;;0.00;0.00;;;;;;;;;;5059612;28;20210;-71
2021/08/15 08:15:24;;;;;;;0.00;0.00;;;;;;;;;;5057451;28;20195;-70
2021/08/15 08:17:51;;;;;;;0.00;0.00;;;;;;;;;;5062393;28;20677;-70
2021/08/15 08:20:21;;;;;;;0.00;0.00;;;;;;;;;;5064708;28;20605;-72
2021/08/15 08:22:49;;;;;;;0.00;0.00;;;;;;;;;;5062077;28;20707;-70
2021/08/15 08:25:17;;;;;;;0.00;0.00;;;;;;;;;;5059085;28;20231;-72
2021/08/15 08:27:44;;;;;;;0.00;0.00;;;;;;;;;;5062460;28;20203;-72
2021/08/15 08:30:12;;;;;;;0.00;0.00;;;;;;;;;;5059902;28;20203;-71
2021/08/15 08:32:41;;;;;;;0.00;0.00;;;;;;;;;;5060787;28;20199;-70
2021/08/15 08:35:09;;;;;;;0.00;0.00;;;;;;;;;;5058969;28;20199;-72
2021/08/15 08:37:37;;;;;;;0.00;0.00;;;;;;;;;;5058182;28;20202;-71
2021/08/15 08:40:06;;;;;;;0.00;0.00;;;;;;;;;;5059075;28;20290;-71
2021/08/15 08:42:33;;;;;;;0.00;0.00;;;;;;;;;;5061811;28;20203;-71
2021/08/15 08:45:02;;;;;;;0.00;0.00;;;;;;;;;;5060888;28;20743;-73
2021/08/15 08:47:30;;;;;;;0.00;0.00;;;;;;;;;;5066572;28;20285;-71
2021/08/15 08:49:58;;;;;;;0.00;0.00;;;;;;;;;;5066016;28;20250;-71
2021/08/15 08:52:29;;;;;;;0.00;0.00;;;;;;;;;;5061656;28;20556;-71
2021/08/15 08:54:58;;;;;;;0.00;0.00;;;;;;;;;;5060500;28;20230;-71
2021/08/15 08:57:25;;;;;;;0.00;0.00;;;;;;;;;;5061405;28;20210;-71
2021/08/15 08:59:53;;;;;;;0.00;0.00;;;;;;;;;;5060051;28;20202;-73
2021/08/15 09:02:20;;;;;;;0.00;0.00;;;;;;;;;;5063344;28;20226;-73
2021/08/15 09:04:47;;;;;;;0.00;0.00;;;;;;;;;;5062062;28;20234;-72
2021/08/15 09:07:16;;;;;;;0.00;0.00;;;;;;;;;;5061464;28;20203;-72
2021/08/15 09:09:51;;;;;;;0.00;0.00;;;;;;;;;;5060628;28;20231;-71
2021/08/15 09:12:20;;;;;;;0.00;0.00;;;;;;;;;;5061769;28;20210;-72
2021/08/15 09:14:47;;;;;;;0.00;0.00;;;;;;;;;;5062210;28;20203;-72
2021/08/15 09:17:15;;;;;;;0.00;0.00;;;;;;;;;;5063526;28;20199;-72
2021/08/15 09:19:45;;;;;;;0.00;0.00;;;;;;;;;;5065840;28;20573;-72
2021/08/15 09:22:22;;;;;;;0.00;0.00;;;;;;;;;;5062883;28;20703;-71
2021/08/15 09:24:52;;;;;;;0.00;0.00;;;;;;;;;;5061785;28;20364;-72
2021/08/15 09:27:22;;;;;;;0.00;0.00;;;;;;;;;;5060362;28;20278;-74
2021/08/15 09:30:09;;;;;;;0.00;0.00;;;;;;;;;;5062692;28;20301;-75
2021/08/15 09:32:37;;;;;;;0.20;0.20;;;;;;;;;;5064559;28;20211;-71
2021/08/15 09:35:05;;;;;;;0.00;0.00;;;;;;;;;;5060030;28;20208;-72
2021/08/15 09:37:33;;;;;;;0.00;0.00;;;;;;;;;;5059461;28;20233;-71
2021/08/15 09:40:07;;;;;;;0.00;0.00;;;;;;;;;;5059805;28;20248;-72
2021/08/15 09:42:43;;;;;;;0.00;0.00;;;;;;;;;;5057770;28;20557;-71
2021/08/15 09:45:13;;;;;;;0.00;0.00;;;;;;;;;;5058375;28;20230;-72
2021/08/15 09:47:41;;;;;;;0.00;0.00;;;;;;;;;;5059977;28;20198;-72
2021/08/15 09:50:17;;;;;;;0.00;0.00;;;;;;;;;;5056962;28;20206;-72
2021/08/15 09:52:45;;;;;;;0.00;0.00;;;;;;;;;;5061742;28;20210;-72
2021/08/15 09:55:13;;;;;;;0.00;0.00;;;;;;;;;;5059179;28;20237;-72
2021/08/15 09:57:42;;;;;;;0.00;0.00;;;;;;;;;;5064858;28;20199;-72
2021/08/15 10:00:31;;;;;;;0.00;0.00;;;;;;;;;;5065557;28;20222;-72
2021/08/15 10:03:01;;;;;;;0.00;0.00;;;;;;;;;;5065349;28;20218;-71
2021/08/15 10:05:28;;;;;;;0.00;0.00;;;;;;;;;;5060919;28;20324;-71
2021/08/15 10:07:55;;;;;;;0.00;0.00;;;;;;;;;;5060510;28;20590;-71
2021/08/15 10:10:23;;;;;;;0.00;0.00;;;;;;;;;;5061708;28;20233;-71
2021/08/15 10:12:52;;;;;;;0.00;0.00;;;;;;;;;;5060171;28;20219;-70
2021/08/15 10:15:19;;;;;;;0.00;0.00;;;;;;;;;;5059109;28;20663;-72
2021/08/15 10:17:48;;;;;;;0.00;0.00;;;;;;;;;;5058094;28;20207;-72
2021/08/15 10:20:19;;;;;;;0.00;0.00;;;;;;;;;;5058137;28;20209;-72
2021/08/15 10:22:48;;;;;;;0.00;0.00;;;;;;;;;;5061023;28;20199;-75
2021/08/15 10:25:32;;;;;;;0.00;0.00;;;;;;;;;;5064459;28;20231;-72
2021/08/15 10:28:02;;;;;;;0.00;0.00;;;;;;;;;;5060499;28;20237;-72
2021/08/15 10:30:46;;;;;;;0.03;0.03;;;;;;;;;;5062537;28;20645;-73
2021/08/15 10:33:21;;;;;;;4.57;4.30;;;;;;;;;;5060265;28;20211;-73
2021/08/15 10:36:03;;;;;;;0.00;0.00;;;;;;;;;;5064370;28;20207;-73
2021/08/15 10:38:31;;;;;;;0.00;0.00;;;;;;;;;;5065155;28;20202;-73
2021/08/15 10:40:59;;;;;;;0.00;0.00;;;;;;;;;;5061139;28;20199;-72
2021/08/15 10:43:45;;;;;;;0.00;0.00;;;;;;;;;;5065542;28;20207;-72
2021/08/15 10:46:15;;;;;;;0.00;0.00;;;;;;;;;;5063740;28;20687;-72
2021/08/15 10:48:52;;;;;;;0.00;0.00;;;;;;;;;;5066822;28;20199;-73
2021/08/15 10:51:39;;;;;;;0.00;0.00;;;;;;;;;;5066725;28;20215;-74
2021/08/15 10:54:06;;;;;;;0.32;0.32;;;;;;;;;;5063632;28;20664;-73
2021/08/15 10:56:49;;;;;;;0.00;0.00;;;;;;;;;;5068517;28;20199;-73
2021/08/15 10:59:32;;;;;;;0.00;0.00;;;;;;;;;;5068505;28;20209;-74
2021/08/15 11:02:10;;;;;;;0.00;0.00;;;;;;;;;;5066167;28;20207;-73
2021/08/15 11:04:38;;;;;;;0.00;0.00;;;;;;;;;;5062149;28;20199;-73
2021/08/15 11:07:05;;;;;;;0.00;0.00;;;;;;;;;;5065289;28;20249;-73
2021/08/15 11:09:51;;;;;;;0.20;0.20;;;;;;;;;;5068115;28;20237;-73
2021/08/15 11:12:19;;;;;;;0.00;0.00;;;;;;;;;;5066108;28;20199;-74
2021/08/15 11:15:03;;;;;;;0.00;0.00;;;;;;;;;;5066494;28;20211;-74
2021/08/15 11:17:32;;;;;;;0.00;0.00;;;;;;;;;;5069362;28;20202;-73
2021/08/15 11:20:14;;;;;;;0.00;0.00;;;;;;;;;;5067624;28;20665;-74
2021/08/15 11:22:42;;;;;;;0.00;0.00;;;;;;;;;;5067027;28;20194;-74
2021/08/15 11:25:09;;;;;;;0.00;0.00;;;;;;;;;;5065335;28;20594;-73
2021/08/15 11:27:39;;;;;;;0.00;0.00;;;;;;;;;;5068199;28;20196;-74
2021/08/15 11:30:09;;;;;;;0.00;0.00;;;;;;;;;;5067962;28;20195;-73
2021/08/15 11:32:38;;;;;;;0.00;0.00;;;;;;;;;;5064518;28;20199;-73
2021/08/15 11:35:07;;;;;;;0.00;0.00;;;;;;;;;;5062951;28;20194;-73
2021/08/15 11:37:35;;;;;;;0.75;0.75;;;;;;;;;;5069100;28;20246;-73
2021/08/15 11:40:11;;;;;;;0.00;0.00;;;;;;;;;;5066439;28;20199;-73
2021/08/15 11:42:38;;;;;;;0.00;0.00;;;;;;;;;;5060227;28;20206;-73
2021/08/15 11:45:06;;;;;;;0.00;0.00;;;;;;;;;;5063214;28;20204;-73
2021/08/15 11:47:35;;;;;;;0.00;0.00;;;;;;;;;;5059369;28;20199;-73
2021/08/15 11:50:13;;;;;;;0.00;0.00;;;;;;;;;;5055652;28;20191;-74
2021/08/15 11:52:40;;;;;;;0.00;0.00;;;;;;;;;;5062056;28;20205;-75
2021/08/15 11:55:09;;;;;;;0.00;0.00;;;;;;;;;;5065618;28;20579;-74
2021/08/15 11:57:46;;;;;;;0.00;0.00;;;;;;;;;;5068649;28;20198;-73
2021/08/15 12:00:14;;;;;;;0.00;0.00;;;;;;;;;;5055379;28;20698;-73
2021/08/15 12:02:42;;;;;;;0.00;0.00;;;;;;;;;;5070503;28;20589;-74
2021/08/15 12:05:11;;;;;;;0.00;0.00;;;;;;;;;;5063241;28;20648;-74
2021/08/15 12:07:38;;;;;;;0.00;0.00;;;;;;;;;;5063973;28;20211;-73
2021/08/15 12:10:27;;;;;;;0.00;0.00;;;;;;;;;;5070399;28;20242;-73
2021/08/15 12:13:14;;;;;;;0.00;0.00;;;;;;;;;;5065303;28;20202;-73
2021/08/15 12:15:42;;;;;;;0.00;0.00;;;;;;;;;;5066628;28;20541;-74
2021/08/15 12:18:09;;;;;;;0.00;0.00;;;;;;;;;;5064684;28;20664;-73
2021/08/15 12:20:45;;;;;;;0.00;0.00;;;;;;;;;;5060765;28;20711;-73
2021/08/15 12:23:12;;;;;;;0.00;0.00;;;;;;;;;;5061108;28;20694;-74
2021/08/15 12:25:39;;;;;;;0.00;0.00;;;;;;;;;;5054143;28;20238;-74
2021/08/15 12:28:11;;;;;;;0.00;0.00;;;;;;;;;;5055632;28;20195;-73
2021/08/15 12:30:38;;;;;;;0.00;0.00;;;;;;;;;;5059067;28;20200;-73
2021/08/15 12:33:20;;;;;;;0.00;0.00;;;;;;;;;;5063695;28;20221;-73
2021/08/15 12:35:49;;;;;;;0.00;0.00;;;;;;;;;;5068666;28;20285;-73
2021/08/15 12:38:27;;;;;;;0.00;0.00;;;;;;;;;;5065190;28;20238;-72
2021/08/15 12:40:54;;;;;;;0.00;0.00;;;;;;;;;;5064075;28;20203;-73
2021/08/15 12:43:24;;;;;;;0.00;0.00;;;;;;;;;;5065709;28;20199;-72
2021/08/15 12:45:52;;;;;;;0.00;0.00;;;;;;;;;;5067634;28;20230;-73
2021/08/15 12:48:20;;;;;;;0.00;0.00;;;;;;;;;;5077709;28;20206;-74
2021/08/15 12:50:58;;;;;;;0.00;0.00;;;;;;;;;;5070307;28;20682;-73
2021/08/15 12:53:32;;;;;;;0.00;0.00;;;;;;;;;;5065351;28;20227;-73
2021/08/15 12:56:14;;;;;;;0.00;0.00;;;;;;;;;;5053468;28;20609;-73
2021/08/15 12:58:41;;;;;;;0.00;0.00;;;;;;;;;;5053445;28;20210;-74
2021/08/15 13:01:08;;;;;;;0.00;0.00;;;;;;;;;;5062704;28;20230;-73
2021/08/15 13:03:36;;;;;;;0.00;0.00;;;;;;;;;;5065883;28;20656;-73
2021/08/15 13:06:06;;;;;;;0.00;0.00;;;;;;;;;;5071648;28;20233;-73
2021/08/15 13:08:34;;;;;;;0.00;0.00;;;;;;;;;;5061965;28;20209;-74
2021/08/15 13:11:01;;;;;;;0.00;0.00;;;;;;;;;;5056442;28;20195;-73
2021/08/15 13:13:29;;;;;;;0.00;0.00;;;;;;;;;;5058289;28;20200;-73
2021/08/15 13:15:56;;;;;;;0.00;0.00;;;;;;;;;;5068569;28;20198;-73
2021/08/15 13:18:24;;;;;;;0.00;0.00;;;;;;;;;;5061596;28;20195;-73
2021/08/15 13:20:51;;;;;;;0.00;0.00;;;;;;;;;;5057613;28;20212;-73
2021/08/15 13:23:20;;;;;;;0.00;0.00;;;;;;;;;;5055071;28;20299;-73
2021/08/15 13:25:49;;;;;;;0.00;0.00;;;;;;;;;;5061239;28;20237;-73
2021/08/15 13:28:19;;;;;;;0.00;0.00;;;;;;;;;;5051802;28;20618;-73
2021/08/15 13:30:47;;;;;;;0.00;0.00;;;;;;;;;;5063240;28;20668;-73
2021/08/15 13:33:14;;;;;;;0.00;0.00;;;;;;;;;;5062680;28;20210;-73
2021/08/15 13:35:42;;;;;;;0.00;0.00;;;;;;;;;;5065508;28;20203;-73
2021/08/15 13:38:09;;;;;;;0.00;0.00;;;;;;;;;;5066939;28;20248;-73
2021/08/15 13:40:38;;;;;;;0.00;0.00;;;;;;;;;;5054755;28;20231;-74
2021/08/15 13:43:06;;;;;;;0.00;0.00;;;;;;;;;;5059687;28;20202;-72
2021/08/15 13:45:33;;;;;;;0.00;0.00;;;;;;;;;;5066750;28;20595;-72
2021/08/15 13:48:01;;;;;;;0.00;0.00;;;;;;;;;;5067846;28;20195;-73
2021/08/15 13:50:28;;;;;;;0.00;0.00;;;;;;;;;;5061085;28;20275;-73
2021/08/15 13:52:55;;;;;;;0.00;0.00;;;;;;;;;;5064943;28;20203;-73
2021/08/15 13:55:23;;;;;;;0.00;0.00;;;;;;;;;;5065800;28;20569;-73
2021/08/15 13:57:52;;;;;;;0.00;0.00;;;;;;;;;;5065318;28;20214;-74
2021/08/15 14:00:19;;;;;;;0.00;0.00;;;;;;;;;;5052072;28;20686;-74
2021/08/15 14:02:46;;;;;;;0.00;0.00;;;;;;;;;;5057829;28;20215;-74
2021/08/15 14:05:14;;;;;;;0.00;0.00;;;;;;;;;;5063177;28;20269;-73
2021/08/15 14:07:41;;;;;;;0.00;0.00;;;;;;;;;;5061610;28;20260;-73
2021/08/15 14:10:09;;;;;;;0.00;0.00;;;;;;;;;;5060024;28;20222;-74
2021/08/15 14:12:37;;;;;;;0.00;0.00;;;;;;;;;;5059400;28;20218;-73
2021/08/15 14:15:07;;;;;;;0.00;0.00;;;;;;;;;;5063437;28;20291;-73
2021/08/15 14:17:34;;;;;;;0.00;0.00;;;;;;;;;;5066077;28;20303;-73
2021/08/15 14:20:02;;;;;;;0.00;0.00;;;;;;;;;;5064251;28;20617;-73
2021/08/15 14:22:30;;;;;;;0.00;0.00;;;;;;;;;;5060210;28;20209;-74
2021/08/15 14:24:57;;;;;;;0.00;0.00;;;;;;;;;;5058128;28;20576;-73
2021/08/15 14:27:26;;;;;;;0.00;0.00;;;;;;;;;;5067553;28;20672;-73
2021/08/15 14:29:53;;;;;;;0.00;0.00;;;;;;;;;;5052033;28;20218;-73
2021/08/15 14:32:22;;;;;;;0.00;0.00;;;;;;;;;;5054467;28;20665;-73
2021/08/15 14:34:50;;;;;;;0.00;0.00;;;;;;;;;;5060904;28;20212;-74
2021/08/15 14:37:18;;;;;;;0.00;0.00;;;;;;;;;;5065833;28;20209;-76
2021/08/15 14:39:45;;;;;;;0.00;0.00;;;;;;;;;;5065543;28;20199;-74
2021/08/15 14:42:13;;;;;;;0.00;0.00;;;;;;;;;;5064848;28;20298;-73
2021/08/15 14:44:40;;;;;;;0.00;0.00;;;;;;;;;;5061173;28;20283;-73
2021/08/15 14:47:08;;;;;;;0.00;0.00;;;;;;;;;;5069938;28;20226;-74
2021/08/15 14:49:37;;;;;;;0.10;0.10;;;;;;;;;;5074532;28;20678;-74
2021/08/15 14:52:05;;;;;;;0.05;0.05;;;;;;;;;;5064317;28;20235;-74
2021/08/15 14:54:32;;;;;;;0.00;0.00;;;;;;;;;;5060909;28;20225;-74